createdAt,value
2022-07-25T00:01:15.678Z,21.93
2022-07-25T00:03:42.015Z,21.70
2022-07-25T00:06:13.526Z,21.76
2022-07-25T00:08:44.391Z,21.67
2022-07-25T00:11:10.693Z,21.46
2022-07-25T00:13:37.005Z,21.55
2022-07-25T00:16:03.340Z,21.58
2022-07-25T00:18:29.746Z,21.39
2022-07-25T00:20:56.059Z,21.52
2022-07-25T00:23:22.367Z,21.40
2022-07-25T00:25:48.653Z,21.50
2022-07-25T00:28:15.039Z,21.28
2022-07-25T00:30:41.362Z,21.42
2022-07-25T00:33:07.669Z,21.39
2022-07-25T00:35:33.983Z,21.40
2022-07-25T00:38:00.318Z,21.13
2022-07-25T00:40:26.737Z,21.03
2022-07-25T00:42:53.109Z,21.05
2022-07-25T00:45:19.435Z,21.22
2022-07-25T00:47:45.738Z,21.31
2022-07-25T00:50:12.053Z,21.13
2022-07-25T00:52:38.356Z,21.24
2022-07-25T00:55:04.684Z,21.17
2022-07-25T00:57:31.007Z,21.25
2022-07-25T00:59:57.319Z,21.25
2022-07-25T01:02:23.683Z,21.25
2022-07-25T01:04:50.043Z,21.24
2022-07-25T01:07:16.401Z,21.25
2022-07-25T01:09:42.678Z,21.23
2022-07-25T01:12:08.991Z,21.17
2022-07-25T01:14:36.613Z,21.07
2022-07-25T01:17:02.907Z,21.09
2022-07-25T01:19:29.229Z,20.96
2022-07-25T01:21:56.281Z,20.95
2022-07-25T01:24:22.547Z,20.98
2022-07-25T01:26:48.868Z,20.85
2022-07-25T01:29:15.187Z,20.80
2022-07-25T01:31:41.484Z,20.80
2022-07-25T01:34:08.049Z,20.78
2022-07-25T01:36:34.526Z,20.64
2022-07-25T01:39:00.841Z,20.75
2022-07-25T01:41:27.131Z,20.79
2022-07-25T01:43:53.458Z,20.83
2022-07-25T01:46:19.787Z,20.81
2022-07-25T01:48:46.207Z,20.77
2022-07-25T01:51:12.554Z,20.64
2022-07-25T01:53:39.156Z,20.73
2022-07-25T01:56:05.967Z,20.72
2022-07-25T01:58:34.606Z,20.55
2022-07-25T02:01:00.931Z,20.60
2022-07-25T02:03:30.110Z,20.58
2022-07-25T02:05:56.404Z,20.66
2022-07-25T02:08:23.176Z,20.67
2022-07-25T02:10:49.482Z,20.53
2022-07-25T02:13:15.793Z,20.54
2022-07-25T02:15:42.084Z,20.54
2022-07-25T02:18:08.397Z,20.49
2022-07-25T02:20:34.715Z,20.44
2022-07-25T02:23:01.022Z,20.50
2022-07-25T02:25:27.314Z,20.50
2022-07-25T02:27:53.622Z,20.55
2022-07-25T02:30:19.963Z,20.58
2022-07-25T02:32:46.301Z,20.57
2022-07-25T02:35:13.486Z,20.46
2022-07-25T02:37:39.853Z,20.45
2022-07-25T02:40:06.319Z,20.43
2022-07-25T02:42:32.611Z,20.39
2022-07-25T02:44:58.927Z,20.36
2022-07-25T02:47:25.224Z,20.19
2022-07-25T02:49:51.548Z,20.37
2022-07-25T02:52:17.874Z,20.29
2022-07-25T02:54:44.188Z,20.19
2022-07-25T02:57:10.489Z,20.28
2022-07-25T02:59:36.792Z,20.39
2022-07-25T03:02:03.079Z,20.40
2022-07-25T03:04:31.010Z,20.37
2022-07-25T03:06:57.402Z,20.34
2022-07-25T03:09:23.735Z,20.31
2022-07-25T03:11:51.829Z,20.24
2022-07-25T03:14:18.141Z,20.29
2022-07-25T03:16:44.507Z,19.98
2022-07-25T03:19:12.724Z,20.14
2022-07-25T03:21:39.017Z,20.24
2022-07-25T03:24:05.644Z,20.27
2022-07-25T03:26:32.239Z,20.29
2022-07-25T03:28:58.539Z,20.30
2022-07-25T03:31:24.909Z,20.32
2022-07-25T03:33:51.262Z,20.39
2022-07-25T03:36:17.591Z,20.36
2022-07-25T03:38:43.890Z,20.31
2022-07-25T03:41:10.192Z,20.38
2022-07-25T03:43:36.501Z,20.34
2022-07-25T03:46:02.844Z,20.33
2022-07-25T03:48:29.218Z,20.42
2022-07-25T03:50:55.525Z,20.41
2022-07-25T03:53:21.835Z,20.43
2022-07-25T03:55:48.134Z,20.45
2022-07-25T03:58:14.458Z,20.43
2022-07-25T04:00:40.823Z,20.51
2022-07-25T04:03:07.483Z,20.52
2022-07-25T04:05:33.793Z,20.55
2022-07-25T04:08:00.415Z,20.61
2022-07-25T04:10:26.731Z,20.66
2022-07-25T04:12:53.034Z,20.64
2022-07-25T04:15:19.355Z,20.75
2022-07-25T04:17:45.639Z,20.82
2022-07-25T04:20:11.973Z,20.92
2022-07-25T04:22:40.090Z,20.96
2022-07-25T04:25:08.546Z,20.97
2022-07-25T04:27:34.839Z,21.04
2022-07-25T04:30:01.171Z,21.17
2022-07-25T04:32:27.522Z,21.38
2022-07-25T04:34:55.303Z,21.51
2022-07-25T04:37:21.803Z,21.63
2022-07-25T04:39:48.130Z,21.82
2022-07-25T04:42:14.438Z,21.93
2022-07-25T04:44:40.760Z,21.96
2022-07-25T04:47:07.074Z,22.08
2022-07-25T04:49:33.391Z,22.30
2022-07-25T04:51:59.677Z,22.54
2022-07-25T04:54:26.024Z,22.76
2022-07-25T04:56:52.324Z,22.78
2022-07-25T04:59:18.629Z,22.95
2022-07-25T05:01:44.957Z,22.99
2022-07-25T05:04:11.335Z,23.04
2022-07-25T05:06:37.637Z,23.12
2022-07-25T05:09:03.969Z,23.06
2022-07-25T05:11:30.268Z,23.14
2022-07-25T05:13:56.583Z,23.35
2022-07-25T05:16:22.985Z,23.54
2022-07-25T05:18:49.307Z,23.75
2022-07-25T05:21:15.595Z,23.90
2022-07-25T05:23:41.914Z,23.96
2022-07-25T05:26:08.218Z,24.07
2022-07-25T05:28:34.535Z,24.08
2022-07-25T05:31:00.909Z,24.05
2022-07-25T05:33:27.379Z,24.27
2022-07-25T05:35:53.697Z,24.42
2022-07-25T05:38:20.107Z,24.64
2022-07-25T05:40:47.497Z,24.65
2022-07-25T05:43:13.809Z,24.77
2022-07-25T05:45:40.110Z,25.02
2022-07-25T05:48:06.637Z,25.23
2022-07-25T05:50:32.941Z,25.30
2022-07-25T05:52:59.257Z,25.32
2022-07-25T05:55:25.572Z,25.17
2022-07-25T05:57:51.885Z,25.14
2022-07-25T06:00:18.226Z,25.32
2022-07-25T06:02:44.805Z,25.42
2022-07-25T06:05:11.259Z,25.68
2022-07-25T06:07:37.773Z,25.73
2022-07-25T06:10:04.080Z,25.80
2022-07-25T06:12:30.406Z,25.86
2022-07-25T06:14:56.734Z,25.60
2022-07-25T06:17:23.407Z,25.95
2022-07-25T06:19:49.707Z,26.17
2022-07-25T06:22:16.007Z,26.12
2022-07-25T06:24:42.306Z,26.34
2022-07-25T06:27:08.867Z,26.24
2022-07-25T06:29:35.189Z,26.49
2022-07-25T06:32:01.566Z,26.64
2022-07-25T06:34:28.881Z,26.55
2022-07-25T06:36:55.354Z,26.83
2022-07-25T06:39:21.660Z,26.84
2022-07-25T06:41:47.979Z,27.00
2022-07-25T06:44:14.277Z,27.13
2022-07-25T06:46:40.676Z,27.04
2022-07-25T06:49:07.142Z,27.17
2022-07-25T06:51:34.044Z,27.18
2022-07-25T06:54:00.332Z,27.18
2022-07-25T06:56:31.272Z,27.23
2022-07-25T06:58:57.678Z,27.33
2022-07-25T07:01:24.046Z,27.20
2022-07-25T07:03:50.462Z,27.45
2022-07-25T07:06:16.807Z,27.70
2022-07-25T07:08:43.134Z,27.65
2022-07-25T07:11:09.442Z,27.86
2022-07-25T07:13:35.730Z,28.02
2022-07-25T07:16:02.564Z,28.08
2022-07-25T07:18:28.908Z,28.29
2022-07-25T07:20:55.208Z,28.44
2022-07-25T07:23:21.520Z,28.41
2022-07-25T07:25:48.174Z,28.42
2022-07-25T07:28:14.423Z,28.46
2022-07-25T07:33:27.021Z,28.87
2022-07-25T07:35:55.887Z,28.72
2022-07-25T07:38:22.194Z,29.05
2022-07-25T07:40:48.884Z,29.14
2022-07-25T07:43:15.193Z,29.24
2022-07-25T07:45:41.488Z,29.42
2022-07-25T07:48:08.032Z,29.61
2022-07-25T07:50:34.325Z,29.54
2022-07-25T07:53:00.652Z,29.83
2022-07-25T07:55:45.566Z,29.93
2022-07-25T07:58:11.998Z,29.95
2022-07-25T08:00:39.405Z,30.22
2022-07-25T08:03:06.634Z,30.17
2022-07-25T08:05:33.027Z,30.43
2022-07-25T08:07:59.534Z,30.67
2022-07-25T08:10:26.049Z,30.72
2022-07-25T08:12:52.376Z,30.67
2022-07-25T08:15:18.700Z,30.84
2022-07-25T08:17:45.012Z,30.78
2022-07-25T08:20:35.723Z,30.89
2022-07-25T08:22:57.526Z,31.02
2022-07-25T08:25:23.816Z,31.33
2022-07-25T08:27:50.126Z,31.50
2022-07-25T08:30:16.427Z,31.61
2022-07-25T08:32:42.751Z,31.68
2022-07-25T08:35:11.538Z,31.55
2022-07-25T08:37:38.008Z,31.28
2022-07-25T08:40:04.308Z,31.48
2022-07-25T08:42:30.602Z,31.59
2022-07-25T08:44:56.889Z,31.60
2022-07-25T08:47:23.332Z,31.47
2022-07-25T08:49:49.582Z,31.48
2022-07-25T08:52:15.890Z,31.47
2022-07-25T08:54:42.491Z,31.47
2022-07-25T08:57:08.724Z,31.83
2022-07-25T08:59:35.014Z,31.82
2022-07-25T09:02:03.741Z,32.22
2022-07-25T09:04:30.462Z,32.45
2022-07-25T09:06:56.792Z,32.58
2022-07-25T09:09:23.095Z,32.71
2022-07-25T09:11:50.425Z,32.72
2022-07-25T09:14:16.722Z,32.80
2022-07-25T09:16:43.206Z,32.98
2022-07-25T09:19:10.812Z,33.16
2022-07-25T09:21:37.168Z,33.25
2022-07-25T09:24:04.096Z,33.24
2022-07-25T09:26:30.673Z,33.25
2022-07-25T09:28:56.968Z,33.32
2022-07-25T09:31:23.290Z,33.32
2022-07-25T09:33:49.636Z,33.35
2022-07-25T09:36:15.949Z,33.37
2022-07-25T09:38:42.243Z,33.31
2022-07-25T09:41:09.228Z,33.35
2022-07-25T09:43:36.419Z,33.66
2022-07-25T09:46:02.805Z,33.62
2022-07-25T09:48:29.133Z,33.77
2022-07-25T09:50:55.496Z,33.82
2022-07-25T09:53:21.754Z,33.75
2022-07-25T09:55:48.065Z,33.90
2022-07-25T09:58:14.372Z,33.99
2022-07-25T10:00:43.774Z,34.03
2022-07-25T10:03:10.142Z,33.92
2022-07-25T10:05:36.422Z,33.82
2022-07-25T10:08:02.736Z,33.75
2022-07-25T10:10:29.063Z,33.92
2022-07-25T10:12:55.532Z,33.86
2022-07-25T10:15:21.838Z,34.11
2022-07-25T10:17:49.577Z,33.98
2022-07-25T10:20:15.863Z,33.77
2022-07-25T10:22:58.270Z,34.01
2022-07-25T10:25:49.526Z,33.81
2022-07-25T10:28:15.850Z,34.03
2022-07-25T10:30:42.217Z,34.16
2022-07-25T10:33:08.483Z,34.15
2022-07-25T10:35:34.837Z,34.33
2022-07-25T10:38:01.133Z,34.20
2022-07-25T10:40:27.368Z,34.36
2022-07-25T10:42:53.672Z,34.38
2022-07-25T10:45:19.992Z,34.46
2022-07-25T10:47:46.571Z,34.38
2022-07-25T10:50:34.734Z,34.42
2022-07-25T10:52:59.977Z,34.44
2022-07-25T10:55:26.216Z,34.34
2022-07-25T10:58:16.192Z,34.24
2022-07-25T11:00:38.775Z,34.24
2022-07-25T11:03:05.151Z,34.45
2022-07-25T11:05:31.514Z,34.55
2022-07-25T11:08:20.505Z,34.47
2022-07-25T11:10:44.113Z,34.37
2022-07-25T11:13:10.419Z,34.41
2022-07-25T11:15:36.723Z,34.31
2022-07-25T11:18:02.996Z,34.54
2022-07-25T11:20:29.321Z,34.61
2022-07-25T11:22:55.625Z,34.52
2022-07-25T11:25:22.837Z,34.58
2022-07-25T11:27:49.405Z,34.37
2022-07-25T11:30:15.787Z,34.52
2022-07-25T11:32:42.021Z,34.48
2022-07-25T11:35:10.009Z,34.50
2022-07-25T11:37:36.545Z,34.77
2022-07-25T11:40:02.960Z,34.75
2022-07-25T11:42:29.282Z,34.71
2022-07-25T11:44:55.502Z,34.78
2022-07-25T11:47:22.085Z,34.58
2022-07-25T11:49:48.415Z,34.82
2022-07-25T11:52:14.717Z,34.77
2022-07-25T11:54:40.955Z,34.72
2022-07-25T11:57:08.840Z,34.89
2022-07-25T11:59:35.145Z,34.67
2022-07-25T12:02:01.711Z,34.65
2022-07-25T12:04:28.622Z,34.60
2022-07-25T12:06:55.339Z,34.87
2022-07-25T12:09:21.649Z,34.76
2022-07-25T12:11:47.900Z,34.88
2022-07-25T12:14:14.207Z,34.89
2022-07-25T12:16:40.678Z,35.04
2022-07-25T12:19:07.257Z,35.07
2022-07-25T12:21:33.855Z,34.85
2022-07-25T12:24:00.108Z,34.87
2022-07-25T12:26:26.618Z,34.95
2022-07-25T12:28:52.925Z,35.07
2022-07-25T12:31:19.254Z,35.16
2022-07-25T12:33:45.605Z,35.08
2022-07-25T12:36:11.852Z,35.11
2022-07-25T12:38:38.195Z,35.00
2022-07-25T12:41:04.423Z,35.27
2022-07-25T12:43:30.764Z,35.20
2022-07-25T12:45:57.037Z,35.12
2022-07-25T12:48:23.356Z,35.22
2022-07-25T12:50:49.637Z,35.12
2022-07-25T12:53:16.249Z,35.20
2022-07-25T12:55:42.574Z,35.28
2022-07-25T12:58:09.085Z,35.41
2022-07-25T13:00:35.424Z,35.32
2022-07-25T13:03:01.762Z,35.41
2022-07-25T13:05:28.015Z,35.54
2022-07-25T13:07:54.313Z,35.45
2022-07-25T13:10:20.574Z,35.45
2022-07-25T13:12:46.881Z,34.96
2022-07-25T13:15:13.151Z,35.13
2022-07-25T13:17:40.379Z,35.28
2022-07-25T13:20:06.706Z,35.47
2022-07-25T13:22:32.998Z,35.45
2022-07-25T13:24:59.266Z,35.45
2022-07-25T13:27:25.561Z,35.61
2022-07-25T13:29:54.554Z,35.62
2022-07-25T13:32:21.274Z,35.47
2022-07-25T13:34:47.532Z,35.55
2022-07-25T13:37:13.833Z,35.43
2022-07-25T13:39:42.139Z,35.48
2022-07-25T13:42:08.455Z,35.50
2022-07-25T13:44:34.700Z,35.60
2022-07-25T13:47:00.982Z,35.52
2022-07-25T13:49:27.277Z,35.66
2022-07-25T13:51:53.551Z,35.54
2022-07-25T13:54:19.783Z,35.67
2022-07-25T13:56:46.280Z,35.73
2022-07-25T13:59:18.834Z,35.43
2022-07-25T14:01:47.437Z,35.55
2022-07-25T14:04:13.802Z,35.66
2022-07-25T14:06:40.031Z,35.63
2022-07-25T14:09:06.572Z,35.67
2022-07-25T14:11:33.106Z,35.80
2022-07-25T14:13:59.408Z,35.72
2022-07-25T14:16:25.684Z,35.53
2022-07-25T14:18:52.137Z,35.59
2022-07-25T14:21:18.679Z,35.65
2022-07-25T14:23:44.985Z,35.62
2022-07-25T14:26:11.276Z,35.62
2022-07-25T14:28:37.521Z,35.65
2022-07-25T14:31:03.850Z,35.64
2022-07-25T14:33:30.081Z,35.67
2022-07-25T14:35:56.372Z,35.66
2022-07-25T14:38:22.595Z,35.73
2022-07-25T14:40:48.975Z,35.61
2022-07-25T14:43:15.216Z,35.55
2022-07-25T14:45:41.506Z,35.48
2022-07-25T14:48:07.744Z,35.42
2022-07-25T14:50:34.071Z,35.54
2022-07-25T14:53:00.291Z,35.70
2022-07-25T14:55:26.943Z,35.69
2022-07-25T14:57:53.270Z,35.61
2022-07-25T15:00:19.573Z,35.60
2022-07-25T15:02:45.840Z,35.37
2022-07-25T15:05:12.197Z,35.52
2022-07-25T15:07:38.524Z,35.71
2022-07-25T15:10:04.766Z,35.62
2022-07-25T15:12:31.535Z,35.69
2022-07-25T15:14:57.823Z,35.48
2022-07-25T15:17:24.068Z,35.47
2022-07-25T15:19:50.432Z,35.43
2022-07-25T15:22:16.801Z,35.34
2022-07-25T15:25:06.768Z,35.42
2022-07-25T15:27:29.327Z,35.48
2022-07-25T15:29:55.598Z,35.51
2022-07-25T15:32:21.829Z,35.61
2022-07-25T15:34:48.139Z,35.46
2022-07-25T15:37:14.367Z,35.53
2022-07-25T15:39:40.679Z,35.58
2022-07-25T15:42:06.953Z,35.58
2022-07-25T15:44:33.179Z,35.46
2022-07-25T15:46:59.530Z,35.53
2022-07-25T15:49:25.927Z,35.49
2022-07-25T15:51:52.302Z,35.61
2022-07-25T15:54:18.533Z,35.53
2022-07-25T15:56:44.895Z,35.57
2022-07-25T15:59:11.125Z,35.61
2022-07-25T16:01:37.492Z,35.69
2022-07-25T16:04:03.959Z,35.66
2022-07-25T16:06:30.544Z,35.44
2022-07-25T16:08:56.891Z,35.27
2022-07-25T16:11:23.114Z,35.29
2022-07-25T16:13:49.426Z,35.14
2022-07-25T16:16:15.988Z,35.08
2022-07-25T16:18:42.325Z,35.25
2022-07-25T16:21:08.552Z,35.25
2022-07-25T16:23:41.523Z,35.36
2022-07-25T16:26:12.249Z,35.38
2022-07-25T16:28:39.541Z,35.50
2022-07-25T16:31:05.912Z,35.49
2022-07-25T16:33:32.270Z,35.52
2022-07-25T16:35:58.607Z,35.51
2022-07-25T16:38:25.378Z,35.37
2022-07-25T16:40:51.691Z,35.33
2022-07-25T16:43:17.935Z,35.27
2022-07-25T16:45:44.265Z,35.19
2022-07-25T16:48:10.496Z,35.22
2022-07-25T16:50:36.780Z,35.19
2022-07-25T16:53:03.211Z,35.17
2022-07-25T16:55:29.529Z,35.17
2022-07-25T16:57:55.776Z,35.12
2022-07-25T17:00:22.074Z,35.02
2022-07-25T17:02:51.816Z,35.09
2022-07-25T17:05:18.327Z,35.09
2022-07-25T17:07:45.586Z,34.95
2022-07-25T17:10:11.830Z,34.90
2022-07-25T17:12:38.169Z,34.87
2022-07-25T17:15:04.466Z,34.79
2022-07-25T17:17:31.652Z,34.75
2022-07-25T17:20:00.087Z,34.62
2022-07-25T17:22:26.643Z,34.59
2022-07-25T17:24:52.945Z,34.60
2022-07-25T17:27:19.246Z,34.61
2022-07-25T17:29:45.487Z,34.60
2022-07-25T17:32:11.768Z,34.54
2022-07-25T17:34:38.064Z,34.43
2022-07-25T17:37:04.356Z,34.45
2022-07-25T17:39:30.635Z,34.35
2022-07-25T17:41:56.961Z,34.30
2022-07-25T17:44:23.259Z,34.34
2022-07-25T17:46:50.464Z,34.32
2022-07-25T17:49:16.856Z,34.38
2022-07-25T17:51:43.225Z,34.34
2022-07-25T17:54:09.906Z,34.16
2022-07-25T17:56:36.583Z,34.13
2022-07-25T17:59:02.843Z,34.05
2022-07-25T18:01:29.232Z,33.97
2022-07-25T18:03:55.558Z,33.99
2022-07-25T18:06:25.129Z,33.88
2022-07-25T18:08:55.837Z,33.86
2022-07-25T18:11:22.230Z,33.79
2022-07-25T18:13:48.456Z,33.73
2022-07-25T18:16:14.915Z,33.35
2022-07-25T18:18:41.304Z,32.71
2022-07-25T18:21:07.587Z,32.67
2022-07-25T18:23:33.964Z,32.33
2022-07-25T18:26:00.276Z,31.45
2022-07-25T18:28:26.623Z,31.90
2022-07-25T18:30:52.954Z,31.59
2022-07-25T18:33:20.147Z,31.45
2022-07-25T18:35:46.474Z,31.33
2022-07-25T18:38:12.836Z,30.58
2022-07-25T18:40:39.143Z,30.77
2022-07-25T18:43:08.205Z,30.97
2022-07-25T18:45:35.383Z,30.63
2022-07-25T18:48:01.686Z,30.31
2022-07-25T18:50:27.970Z,30.27
2022-07-25T18:52:54.296Z,30.72
2022-07-25T18:55:20.592Z,30.87
2022-07-25T18:57:46.905Z,30.73
2022-07-25T19:00:13.200Z,30.93
2022-07-25T19:02:39.543Z,31.00
2022-07-25T19:05:06.260Z,30.86
2022-07-25T19:07:32.694Z,30.91
2022-07-25T19:09:59.000Z,30.62
2022-07-25T19:12:27.141Z,29.80
2022-07-25T19:14:53.478Z,29.80
2022-07-25T19:17:19.956Z,29.92
2022-07-25T19:19:46.264Z,29.39
2022-07-25T19:22:12.555Z,29.25
2022-07-25T19:24:38.862Z,28.94
2022-07-25T19:27:05.177Z,29.22
2022-07-25T19:29:31.487Z,29.38
2022-07-25T19:31:57.779Z,29.73
2022-07-25T19:34:24.081Z,30.00
2022-07-25T19:36:50.407Z,30.18
2022-07-25T19:39:17.488Z,30.22
2022-07-25T19:41:46.829Z,30.33
2022-07-25T19:44:13.546Z,29.50
2022-07-25T19:46:39.890Z,29.89
2022-07-25T19:49:06.340Z,29.98
2022-07-25T19:51:32.885Z,30.18
2022-07-25T19:53:59.194Z,30.28
2022-07-25T19:56:25.528Z,29.84
2022-07-25T19:58:51.837Z,29.47
2022-07-25T20:01:18.236Z,29.64
2022-07-25T20:03:44.613Z,29.90
2022-07-25T20:06:10.931Z,29.81
2022-07-25T20:08:39.138Z,29.73
2022-07-25T20:11:05.423Z,29.80
2022-07-25T20:13:31.834Z,29.49
2022-07-25T20:15:58.675Z,29.69
2022-07-25T20:18:24.996Z,29.45
2022-07-25T20:20:51.289Z,29.30
2022-07-25T20:23:17.602Z,29.18
2022-07-25T20:25:43.907Z,29.50
2022-07-25T20:28:10.219Z,29.53
2022-07-25T20:30:36.555Z,29.41
2022-07-25T20:33:05.563Z,29.32
2022-07-25T20:35:35.789Z,29.23
2022-07-25T20:38:02.094Z,29.12
2022-07-25T20:40:28.629Z,28.92
2022-07-25T20:42:55.647Z,28.42
2022-07-25T20:45:21.957Z,28.20
2022-07-25T20:47:48.244Z,28.59
2022-07-25T20:50:14.545Z,28.66
2022-07-25T20:52:40.852Z,28.48
2022-07-25T20:55:08.877Z,28.34
2022-07-25T20:57:35.167Z,28.53
2022-07-25T21:00:01.476Z,28.56
2022-07-25T21:02:27.857Z,28.51
2022-07-25T21:04:54.235Z,28.47
2022-07-25T21:07:20.605Z,28.51
2022-07-25T21:09:46.907Z,28.46
2022-07-25T21:12:13.198Z,28.39
2022-07-25T21:14:39.500Z,28.36
2022-07-25T21:17:05.947Z,28.30
2022-07-25T21:19:32.344Z,28.28
2022-07-25T21:21:58.640Z,28.24
2022-07-25T21:24:24.941Z,27.71
2022-07-25T21:26:51.467Z,27.66
2022-07-25T21:29:18.146Z,27.87
2022-07-25T21:31:44.439Z,27.87
2022-07-25T21:34:10.788Z,27.97
2022-07-25T21:36:37.103Z,27.83
2022-07-25T21:39:03.411Z,27.87
2022-07-25T21:41:29.725Z,27.25
2022-07-25T21:43:56.015Z,27.61
2022-07-25T21:46:22.459Z,27.23
2022-07-25T21:49:07.623Z,27.40
2022-07-25T21:51:40.399Z,27.57
2022-07-25T21:54:07.396Z,27.45
2022-07-25T21:56:33.715Z,27.17
2022-07-25T21:59:00.011Z,26.94
2022-07-25T22:01:26.344Z,26.71
2022-07-25T22:03:52.876Z,26.94
2022-07-25T22:06:19.288Z,27.24
2022-07-25T22:08:45.631Z,27.38
2022-07-25T22:11:20.841Z,27.37
2022-07-25T22:13:58.230Z,27.40
2022-07-25T22:16:25.087Z,27.38
2022-07-25T22:18:51.408Z,27.39
2022-07-25T22:21:17.722Z,27.12
2022-07-25T22:23:44.700Z,26.96
2022-07-25T22:26:11.021Z,27.14
2022-07-25T22:28:37.340Z,26.86
2022-07-25T22:31:03.985Z,26.64
2022-07-25T22:33:31.018Z,26.77
2022-07-25T22:35:57.513Z,26.62
2022-07-25T22:38:23.817Z,26.66
2022-07-25T22:40:50.120Z,26.53
2022-07-25T22:43:16.410Z,26.63
2022-07-25T22:45:43.169Z,26.57
2022-07-25T22:48:09.495Z,26.61
2022-07-25T22:50:35.796Z,26.41
2022-07-25T22:53:02.087Z,26.46
2022-07-25T22:55:28.405Z,26.31
2022-07-25T22:57:54.700Z,26.16
2022-07-25T23:00:21.005Z,25.80
2022-07-25T23:02:47.324Z,25.87
2022-07-25T23:05:13.680Z,25.44
2022-07-25T23:07:39.976Z,25.12
2022-07-25T23:10:06.339Z,25.28
2022-07-25T23:12:32.637Z,25.27
2022-07-25T23:14:58.971Z,25.39
2022-07-25T23:17:25.311Z,24.98
2022-07-25T23:19:51.653Z,25.53
2022-07-25T23:22:17.976Z,25.54
2022-07-25T23:24:44.296Z,25.46
2022-07-25T23:27:10.579Z,25.28
2022-07-25T23:29:36.878Z,25.49
2022-07-25T23:32:03.285Z,25.39
2022-07-25T23:34:29.667Z,25.28
2022-07-25T23:36:55.982Z,25.10
2022-07-25T23:39:22.303Z,24.69
2022-07-25T23:41:48.584Z,24.92
2022-07-25T23:44:14.892Z,24.45
2022-07-25T23:46:41.241Z,24.50
2022-07-25T23:49:09.824Z,24.72
2022-07-25T23:51:36.462Z,24.75
2022-07-25T23:54:02.916Z,24.24
2022-07-25T23:56:29.213Z,23.98
2022-07-25T23:58:55.543Z,24.54
